HK-0005 weather

Cheung Chau Helipad
Cheung Chau Island, Hong Kong

Public forecast

Using degrees Celsius for public forecast. Weather courtesy of forecast.io.

Closest aviation weather report (METAR) to Cheung Chau Helipad

Closest report is Hong Kong International Airport, 9.0 nm (16.6 km) NW. Retrieved 2020/05/25 21:30 UTC (0 seconds ago):

VHHH 252130Z 21008KT 9999 FEW014 28/26 Q1007 TEMPO 4000 SHRA

Closest aviation forecast (TAF) to Cheung Chau Helipad

Closest forecast is Hong Kong International Airport, 9.0 nm (16.6 km) NW. Retrieved 2020/05/25 18:25 UTC (3 hours ago):

TAF VHHH 251700Z 2518/2624 21010KT 9999 FEW015 SCT030 TX30/2606Z TN26/2523Z TN26/2622Z TEMPO 2518/2520 4000 SHRA FEW010CB SCT020 TEMPO 2520/2602 VRB20G30KT 2500 TSRA SHRA FEW008CB SCT015 BKN040 TEMPO 2602/2606 4000 SHRA FEW010CB SCT020 TEMPO 2606/2610 VRB15G25KT 3500 -TSRA SHRA FEW010CB SCT015 TEMPO 2612/2618 VRB05KT 4000 SHRA FEW010CB SCT020